Time;durP1;ratioP1;P1;durP2;ratioP2;P2;SDS_P1;SDS_P2;PMS_P1;PMS_P2;Temp;Humidity;BMP_temperature;BMP_pressure;BME280_temperature;BME280_humidity;BME280_pressure;Samples;Min_cycle;Max_cycle;Signal;HPM_P1;HPM_P2
2023/04/23 08:05:40;;;;;;;16.80;5.90;;;;;;;11.68;100.00;100384.59;5080102;27;1919154;-71
2023/04/23 08:08:06;;;;;;;10.60;5.40;;;;;;;11.74;100.00;100380.09;5100382;28;20028;-72
2023/04/23 08:10:32;;;;;;;19.33;5.60;;;;;;;11.80;100.00;100385.34;5109775;28;20024;-72
2023/04/23 08:12:57;;;;;;;13.98;5.30;;;;;;;11.88;100.00;100379.53;5104834;28;20059;-72
2023/04/23 08:15:23;;;;;;;11.18;5.65;;;;;;;11.97;100.00;100379.13;5089559;28;20035;-73
2023/04/23 08:17:48;;;;;;;13.80;5.13;;;;;;;12.02;100.00;100374.63;5090426;28;20036;-72
2023/04/23 08:20:13;;;;;;;12.02;5.00;;;;;;;12.13;100.00;100374.81;5108340;28;20119;-73
2023/04/23 08:22:39;;;;;;;14.10;5.20;;;;;;;12.17;100.00;100370.53;5089388;28;20061;-72
2023/04/23 08:25:04;;;;;;;12.02;5.05;;;;;;;12.24;100.00;100371.16;5090094;28;20047;-73
2023/04/23 08:27:30;;;;;;;12.23;4.97;;;;;;;12.35;100.00;100366.72;5109319;28;20032;-73
2023/04/23 08:29:55;;;;;;;11.95;4.30;;;;;;;12.44;100.00;100359.81;5089009;28;20475;-73
2023/04/23 08:32:21;;;;;;;9.90;3.90;;;;;;;12.53;100.00;100363.75;5089029;28;20032;-73
2023/04/23 08:34:46;;;;;;;10.18;4.20;;;;;;;12.61;100.00;100369.81;5108374;28;20035;-73
2023/04/23 08:37:11;;;;;;;14.65;4.10;;;;;;;12.64;100.00;100369.31;5108517;28;20024;-73
2023/04/23 08:39:36;;;;;;;10.48;4.40;;;;;;;12.68;100.00;100360.41;5108262;28;20095;-73
2023/04/23 08:42:22;;;;;;;9.63;3.90;;;;;;;12.84;100.00;100366.03;5108653;28;20401;-70
2023/04/23 08:44:50;;;;;;;11.95;4.80;;;;;;;12.91;100.00;100364.78;5089982;28;20024;-70
2023/04/23 08:47:17;;;;;;;11.18;4.13;;;;;;;13.02;100.00;100360.28;5108185;28;20471;-70
2023/04/23 08:49:45;;;;;;;12.10;4.07;;;;;;;13.04;100.00;100360.84;5089715;28;20478;-68
2023/04/23 08:52:17;;;;;;;8.70;3.78;;;;;;;13.00;100.00;100367.03;5090411;28;20489;-69
2023/04/23 08:54:46;;;;;;;8.10;3.67;;;;;;;13.10;100.00;100369.88;5107550;28;20036;-71
2023/04/23 08:57:14;;;;;;;11.23;3.22;;;;;;;13.23;100.00;100357.81;5091383;28;20065;-70
2023/04/23 08:59:40;;;;;;;9.05;3.42;;;;;;;13.22;100.00;100370.56;5089085;28;20123;-70
2023/04/23 09:02:08;;;;;;;8.80;3.25;;;;;;;13.26;100.00;100371.69;5105404;28;20153;-69
2023/04/23 09:04:35;;;;;;;11.10;2.90;;;;;;;13.28;100.00;100366.00;5107459;28;20108;-68
2023/04/23 09:07:00;;;;;;;9.90;3.30;;;;;;;13.26;100.00;100363.56;5108250;28;20096;-71
2023/04/23 09:09:28;;;;;;;11.60;3.38;;;;;;;13.27;100.00;100375.22;5106713;28;20019;-68
2023/04/23 09:11:57;;;;;;;12.15;3.67;;;;;;;13.33;100.00;100360.66;5109197;28;20036;-70
2023/04/23 09:14:24;;;;;;;10.20;3.00;;;;;;;13.34;100.00;100372.38;5086252;28;20024;-69
2023/04/23 09:16:50;;;;;;;8.45;2.75;;;;;;;13.44;100.00;100373.28;5088420;28;20037;-70
2023/04/23 09:19:18;;;;;;;12.13;3.67;;;;;;;13.51;100.00;100362.19;5078002;28;20345;-73
2023/04/23 09:21:45;;;;;;;8.70;2.55;;;;;;;13.60;100.00;100359.84;5069845;28;20123;-71
2023/04/23 09:24:11;;;;;;;9.35;2.70;;;;;;;13.69;100.00;100357.50;5093977;28;20027;-72
2023/04/23 09:26:47;;;;;;;11.23;3.00;;;;;;;13.81;100.00;100355.41;5091177;28;20036;-69
2023/04/23 09:29:18;;;;;;;6.70;2.67;;;;;;;13.86;100.00;100346.47;5092884;28;20040;-69
2023/04/23 09:31:48;;;;;;;11.07;2.80;;;;;;;13.89;96.93;100351.41;5090263;28;20038;-73
2023/04/23 09:34:18;;;;;;;7.88;2.72;;;;;;;13.97;100.00;100349.03;5087440;28;20081;-74
2023/04/23 09:36:44;;;;;;;8.63;2.55;;;;;;;14.07;100.00;100339.31;5075358;28;20028;-72
2023/04/23 09:39:12;;;;;;;10.00;2.40;;;;;;;14.23;96.46;100335.59;5076725;28;20028;-72
2023/04/23 09:41:38;;;;;;;6.18;2.25;;;;;;;14.34;90.63;100339.22;5094320;28;20077;-71
2023/04/23 09:44:03;;;;;;;6.97;2.60;;;;;;;14.46;91.24;100339.00;5075968;28;20028;-72
2023/04/23 09:46:35;;;;;;;11.02;2.38;;;;;;;14.48;84.84;100334.97;5094519;28;20028;-73
2023/04/23 09:49:02;;;;;;;9.32;2.50;;;;;;;14.45;83.57;100340.13;5094952;28;20044;-71
2023/04/23 09:51:32;;;;;;;8.15;2.60;;;;;;;14.52;80.74;100338.81;5094769;28;20032;-71
2023/04/23 09:53:57;;;;;;;7.18;2.55;;;;;;;14.54;85.43;100341.25;5091763;28;20032;-71
2023/04/23 09:56:23;;;;;;;9.50;2.40;;;;;;;14.50;81.72;100337.41;5094800;28;20028;-71
2023/04/23 09:58:49;;;;;;;9.55;2.85;;;;;;;14.47;81.47;100336.03;5076436;28;20063;-71
2023/04/23 10:01:14;;;;;;;9.23;2.60;;;;;;;14.45;80.55;100340.13;5092333;28;20371;-71
2023/04/23 10:03:43;;;;;;;10.60;2.20;;;;;;;14.45;80.31;100332.75;5094272;28;20078;-71
2023/04/23 10:06:14;;;;;;;10.35;2.38;;;;;;;14.45;79.26;100331.94;5093745;28;20064;-71
2023/04/23 10:08:40;;;;;;;8.77;2.33;;;;;;;14.46;79.54;100328.97;5092826;28;20028;-71
2023/04/23 10:11:06;;;;;;;7.65;2.30;;;;;;;14.54;81.41;100328.44;5076426;28;20402;-72
2023/04/23 10:13:34;;;;;;;11.25;3.17;;;;;;;14.61;86.20;100327.44;5094270;28;20044;-72
2023/04/23 10:16:03;;;;;;;8.45;2.42;;;;;;;14.70;87.09;100329.41;5094441;28;20030;-72
2023/04/23 10:18:30;;;;;;;6.03;2.05;;;;;;;14.74;85.99;100323.41;5075663;28;20092;-73
2023/04/23 10:20:57;;;;;;;8.43;2.33;;;;;;;14.82;86.08;100320.16;5075308;28;20028;-73
2023/04/23 10:23:23;;;;;;;8.68;2.53;;;;;;;14.87;84.08;100322.91;5093498;28;20035;-73
2023/04/23 10:25:52;;;;;;;8.32;2.38;;;;;;;15.00;90.02;100318.88;5093805;28;20081;-73
2023/04/23 10:28:25;;;;;;;8.68;2.80;;;;;;;15.05;94.11;100314.25;5093436;28;20039;-73
2023/04/23 10:30:52;;;;;;;8.48;2.17;;;;;;;15.11;89.00;100306.91;5074886;28;20046;-73
2023/04/23 10:33:19;;;;;;;5.93;2.00;;;;;;;15.13;88.16;100315.66;5093850;28;20467;-73
2023/04/23 10:35:46;;;;;;;7.03;2.20;;;;;;;15.14;83.22;100311.84;5092787;28;20077;-73
2023/04/23 10:38:13;;;;;;;6.82;2.20;;;;;;;15.10;81.91;100310.72;5093684;28;20028;-72
2023/04/23 10:40:45;;;;;;;7.05;2.38;;;;;;;15.00;77.84;100306.06;5075467;28;20080;-73
2023/04/23 10:43:11;;;;;;;9.27;2.65;;;;;;;14.95;82.82;100306.06;5093045;28;20115;-73
2023/04/23 10:45:39;;;;;;;7.60;2.42;;;;;;;14.94;83.38;100309.84;5093581;28;20588;-73
2023/04/23 10:48:04;;;;;;;5.47;2.20;;;;;;;14.97;83.55;100312.03;5092924;28;20119;-73
2023/04/23 10:50:34;;;;;;;7.13;2.53;;;;;;;14.95;77.32;100297.06;5075430;28;20257;-73
2023/04/23 10:53:01;;;;;;;7.22;2.05;;;;;;;15.01;80.46;100285.09;5075533;28;20598;-73
2023/04/23 10:55:36;;;;;;;6.93;2.17;;;;;;;15.00;80.53;100284.25;5093492;28;20050;-78
2023/04/23 10:58:06;;;;;;;4.90;2.00;;;;;;;15.03;82.95;100281.00;5092321;28;20039;-72
2023/04/23 11:00:42;;;;;;;6.82;2.33;;;;;;;15.12;84.91;100275.84;5090299;28;20078;-71
2023/04/23 11:03:28;;;;;;;9.90;2.42;;;;;;;15.17;83.27;100280.50;5093633;28;20028;-72
2023/04/23 11:05:53;;;;;;;9.30;2.47;;;;;;;15.15;83.84;100261.69;5092847;28;20036;-72
2023/04/23 11:08:18;;;;;;;6.22;2.20;;;;;;;15.20;79.98;100266.31;5093044;28;20050;-72
2023/04/23 11:10:58;;;;;;;4.82;2.20;;;;;;;15.19;87.43;100270.97;5090368;28;20379;-71
2023/04/23 11:13:26;;;;;;;7.95;2.65;;;;;;;15.16;83.27;100262.53;5069334;28;20476;-72
2023/04/23 11:16:22;;;;;;;7.07;2.13;;;;;;;15.18;86.05;100257.59;5092288;28;20074;-72
2023/04/23 11:19:14;;;;;;;6.72;1.92;;;;;;;15.16;85.64;100259.78;5058127;28;20036;-78
2023/04/23 11:22:16;;;;;;;6.78;2.05;;;;;;;15.28;91.90;100256.78;5091346;28;20028;-72
2023/04/23 11:24:43;;;;;;;6.13;1.92;;;;;;;15.32;79.82;100253.25;5089089;28;20480;-72
2023/04/23 11:27:14;;;;;;;5.13;1.90;;;;;;;15.30;76.70;100247.25;5070658;28;20021;-72
2023/04/23 11:29:41;;;;;;;7.25;2.10;;;;;;;15.27;78.32;100244.25;5073382;28;20036;-71
2023/04/23 11:32:11;;;;;;;5.50;2.00;;;;;;;15.15;77.38;100244.53;5074729;28;20119;-71
2023/04/23 11:34:44;;;;;;;6.55;2.05;;;;;;;14.95;99.11;100248.84;5073671;28;20038;-72
2023/04/23 11:37:11;;;;;;;4.72;1.63;;;;;;;14.52;74.61;100240.78;5074743;28;20031;-73
2023/04/23 11:39:36;;;;;;;2.60;1.20;;;;;;;14.28;87.75;100229.53;5092225;28;20051;-73
2023/04/23 11:42:03;;;;;;;4.57;1.60;;;;;;;14.13;100.00;100232.16;5091948;28;20074;-72
2023/04/23 11:44:31;;;;;;;3.92;1.80;;;;;;;14.04;100.00;100233.72;5092728;28;20028;-71
2023/04/23 11:47:00;;;;;;;5.53;2.00;;;;;;;14.09;100.00;100222.88;5074418;28;20024;-73
2023/04/23 11:49:26;;;;;;;7.45;2.38;;;;;;;14.16;100.00;100212.56;5092937;28;20108;-72
2023/04/23 11:51:51;;;;;;;5.63;2.10;;;;;;;14.22;100.00;100206.09;5092412;28;20526;-72
2023/04/23 11:54:17;;;;;;;8.02;2.30;;;;;;;14.32;100.00;100194.41;5091761;28;20036;-73
2023/04/23 11:56:42;;;;;;;4.93;2.25;;;;;;;14.47;100.00;100193.66;5066837;28;20029;-73
2023/04/23 11:59:08;;;;;;;6.47;2.38;;;;;;;14.62;100.00;100187.47;5081198;28;20024;-77
2023/04/23 12:01:41;;;;;;;8.57;2.40;;;;;;;14.80;100.00;100181.53;5090508;28;20391;-73
2023/04/23 12:04:57;;;;;;;;;;;;;;;;;;;;;
2023/04/23 12:07:31;;;;;;;5.82;2.20;;;;;;;15.02;100.00;100177.72;5050268;28;20044;-73
2023/04/23 12:10:00;;;;;;;5.80;2.33;;;;;;;15.16;100.00;100164.41;5070032;28;20387;-77
2023/04/23 12:12:33;;;;;;;9.15;2.40;;;;;;;15.29;100.00;100165.75;5072250;28;20077;-74
2023/04/23 12:15:04;;;;;;;5.72;1.90;;;;;;;15.26;100.00;100167.09;5074287;28;20020;-79
2023/04/23 12:17:30;;;;;;;6.90;2.00;;;;;;;15.30;94.79;100157.31;5088614;28;20032;-74
2023/04/23 12:20:19;;;;;;;7.78;2.08;;;;;;;15.28;94.83;100155.94;5079943;28;20033;-78
2023/04/23 12:22:45;;;;;;;4.95;1.90;;;;;;;15.30;83.48;100148.31;5076635;28;20046;-74
2023/04/23 12:25:14;;;;;;;5.28;1.85;;;;;;;15.32;87.17;100152.38;5091679;28;20444;-77
2023/04/23 12:27:41;;;;;;;3.67;1.48;;;;;;;15.28;81.57;100145.88;5091457;28;20081;-71
2023/04/23 12:30:07;;;;;;;8.60;2.30;;;;;;;15.29;80.42;100152.13;5079918;28;20029;-72
2023/04/23 12:32:33;;;;;;;7.07;1.70;;;;;;;15.34;72.65;100152.09;5055015;28;20435;-72
2023/04/23 12:34:59;;;;;;;5.40;1.60;;;;;;;15.38;76.92;100137.69;5053143;28;20021;-72
2023/04/23 12:37:27;;;;;;;7.40;2.35;;;;;;;15.47;78.59;100128.94;5077618;28;20435;-71
2023/04/23 12:39:55;;;;;;;5.88;2.03;;;;;;;15.54;78.69;100133.00;5071105;28;20048;-80
2023/04/23 12:42:20;;;;;;;5.65;1.70;;;;;;;15.57;76.71;100134.38;5071536;28;20042;-78
2023/04/23 12:44:46;;;;;;;6.15;1.88;;;;;;;15.60;80.69;100117.47;5090944;28;20413;-77
2023/04/23 12:47:14;;;;;;;4.90;1.73;;;;;;;15.60;78.58;100117.47;5091586;28;20085;-77
2023/04/23 12:49:40;;;;;;;4.43;1.65;;;;;;;15.68;79.78;100116.06;5090690;28;20089;-72
2023/04/23 12:52:06;;;;;;;7.85;2.00;;;;;;;15.73;72.98;100103.25;5076479;28;20073;-77
2023/04/23 12:54:35;;;;;;;6.60;1.80;;;;;;;15.86;79.16;100098.31;5094514;28;20032;-71
2023/04/23 12:57:02;;;;;;;7.85;2.03;;;;;;;15.86;73.90;100095.59;5075080;28;20032;-74
2023/04/23 12:59:28;;;;;;;5.80;1.63;;;;;;;15.98;73.33;100092.53;5094998;28;20036;-77
2023/04/23 13:01:53;;;;;;;3.33;1.45;;;;;;;16.09;74.99;100085.94;5092804;28;20508;-76
2023/04/23 13:04:19;;;;;;;5.70;1.90;;;;;;;16.27;74.40;100095.38;5095342;28;20048;-75
2023/04/23 13:06:45;;;;;;;5.40;1.88;;;;;;;16.37;73.99;100078.94;5076943;28;20383;-77
2023/04/23 13:09:10;;;;;;;6.78;2.20;;;;;;;16.46;68.65;100082.72;5090007;28;20123;-75
2023/04/23 13:11:37;;;;;;;8.23;2.08;;;;;;;16.42;66.97;100080.84;5093969;28;20043;-72
2023/04/23 13:14:03;;;;;;;5.03;1.75;;;;;;;16.43;69.62;100086.00;5095403;28;20096;-73
2023/04/23 13:16:29;;;;;;;6.10;1.80;;;;;;;16.39;63.30;100073.22;5077450;28;20528;-77
2023/04/23 13:18:54;;;;;;;7.28;1.80;;;;;;;16.37;66.97;100078.94;5095344;28;20038;-76
2023/04/23 13:21:20;;;;;;;4.55;1.70;;;;;;;16.28;67.60;100080.66;5074326;28;20050;-77
2023/04/23 13:23:45;;;;;;;5.07;1.50;;;;;;;16.24;65.67;100065.91;5094308;28;20055;-74
2023/04/23 13:26:11;;;;;;;4.47;1.60;;;;;;;16.15;62.89;100065.69;5095248;28;20059;-79
2023/04/23 13:28:36;;;;;;;5.07;1.77;;;;;;;16.02;64.90;100063.56;5093993;28;20436;-77
2023/04/23 13:31:02;;;;;;;5.80;1.80;;;;;;;15.97;64.13;100058.97;5095363;28;20024;-76
2023/04/23 13:33:28;;;;;;;4.65;1.80;;;;;;;15.92;66.99;100059.00;5092782;28;20537;-77
2023/04/23 13:36:00;;;;;;;6.22;1.77;;;;;;;15.86;65.19;100049.22;5090110;28;20036;-80
2023/04/23 13:38:27;;;;;;;6.22;1.67;;;;;;;15.80;62.86;100050.31;5057231;28;20031;-79
2023/04/23 13:40:52;;;;;;;3.97;1.60;;;;;;;15.75;63.40;100051.13;5056567;28;20028;-75
2023/04/23 13:43:18;;;;;;;6.18;1.70;;;;;;;15.71;60.66;100048.13;5074372;28;20460;-79
2023/04/23 13:45:45;;;;;;;7.93;2.00;;;;;;;15.69;62.89;100055.78;5089700;28;20028;-75
2023/04/23 13:48:10;;;;;;;4.63;1.67;;;;;;;15.65;66.73;100049.25;5094503;28;20421;-76
2023/04/23 13:50:36;;;;;;;7.03;1.55;;;;;;;15.61;65.13;100050.91;5075958;28;20036;-78
2023/04/23 13:53:01;;;;;;;6.25;1.75;;;;;;;15.55;66.62;100043.81;5078967;28;20110;-75
2023/04/23 13:55:29;;;;;;;4.20;1.98;;;;;;;15.47;73.41;100047.13;5074830;28;20040;-77
2023/04/23 13:57:56;;;;;;;5.97;2.25;;;;;;;15.35;71.62;100047.44;5057049;28;20052;-76
2023/04/23 14:00:23;;;;;;;5.82;1.70;;;;;;;15.22;75.55;100044.19;5055843;28;20380;-76
2023/04/23 14:02:51;;;;;;;7.65;2.28;;;;;;;15.12;77.42;100057.03;5088299;28;20036;-75
2023/04/23 14:05:16;;;;;;;6.20;1.80;;;;;;;14.93;82.27;100054.03;5093867;28;20141;-77
2023/04/23 14:07:42;;;;;;;7.65;2.30;;;;;;;14.74;85.87;100067.41;5076144;28;20466;-80
2023/04/23 14:10:07;;;;;;;7.20;1.92;;;;;;;14.51;100.00;100062.19;5076166;28;20028;-81
2023/04/23 14:12:35;;;;;;;7.25;1.80;;;;;;;14.30;100.00;100072.22;5094615;28;20129;-75
2023/04/23 14:15:01;;;;;;;5.75;1.92;;;;;;;14.12;100.00;100062.66;5094313;28;20408;-81
2023/04/23 14:17:27;;;;;;;6.20;1.90;;;;;;;13.97;100.00;100065.31;5075330;28;20052;-75
2023/04/23 14:19:52;;;;;;;5.45;2.00;;;;;;;13.83;100.00;100071.25;5075171;28;20121;-73
2023/04/23 14:22:17;;;;;;;8.80;2.30;;;;;;;13.68;100.00;100079.34;5093992;28;20082;-75
2023/04/23 14:25:02;;;;;;;9.90;2.30;;;;;;;13.35;100.00;100075.09;5094064;28;20032;-75
2023/04/23 14:27:32;;;;;;;6.35;2.33;;;;;;;13.07;100.00;100068.88;5094139;28;20044;-77
2023/04/23 14:30:04;;;;;;;6.15;2.45;;;;;;;13.03;100.00;100074.03;5075609;28;20398;-75
2023/04/23 14:32:29;;;;;;;8.45;2.63;;;;;;;12.92;100.00;100075.03;5090879;28;20024;-77
2023/04/23 14:34:55;;;;;;;6.65;2.47;;;;;;;12.82;100.00;100088.50;5074930;28;20032;-77
2023/04/23 14:37:20;;;;;;;6.57;2.47;;;;;;;12.74;100.00;100100.66;5075866;28;20024;-77
2023/04/23 14:39:45;;;;;;;5.35;2.50;;;;;;;12.67;100.00;100081.88;5094890;28;20107;-78
2023/04/23 14:42:17;;;;;;;11.10;3.20;;;;;;;12.64;100.00;100071.53;5093879;28;20383;-82
2023/04/23 14:44:57;;;;;;;7.43;2.72;;;;;;;12.57;100.00;100065.50;5076176;28;20051;-77
2023/04/23 14:47:23;;;;;;;8.75;2.50;;;;;;;12.50;100.00;100065.72;5075518;28;20693;-76
2023/04/23 14:49:50;;;;;;;7.20;2.60;;;;;;;12.46;100.00;100053.75;5091821;28;20076;-77
2023/04/23 14:52:15;;;;;;;11.30;3.05;;;;;;;12.48;100.00;100054.28;5093396;28;20031;-75
2023/04/23 14:54:40;;;;;;;7.97;2.25;;;;;;;12.42;100.00;100041.75;5093436;28;20039;-77
2023/04/23 14:57:06;;;;;;;7.80;2.28;;;;;;;12.46;100.00;100042.88;5093504;28;20515;-80
2023/04/23 14:59:31;;;;;;;6.80;2.75;;;;;;;12.50;100.00;100037.75;5073645;28;20032;-78
2023/04/23 15:01:56;;;;;;;5.55;2.65;;;;;;;12.46;100.00;100037.47;5090458;28;20407;-81
2023/04/23 15:04:22;;;;;;;11.57;2.80;;;;;;;12.54;100.00;100033.44;5092625;28;20072;-80
2023/04/23 15:06:47;;;;;;;7.28;2.75;;;;;;;12.58;100.00;100029.97;5090485;28;20119;-73
2023/04/23 15:09:12;;;;;;;8.98;3.13;;;;;;;12.59;100.00;100028.91;5092852;28;20501;-76
2023/04/23 15:11:40;;;;;;;8.25;2.85;;;;;;;12.58;100.00;100026.44;5073971;28;20119;-75
2023/04/23 15:14:30;;;;;;;5.32;2.33;;;;;;;12.63;100.00;100026.47;5091480;28;20456;-78
2023/04/23 15:16:55;;;;;;;11.20;3.50;;;;;;;12.54;100.00;100023.41;5087474;28;20055;-74
2023/04/23 15:19:21;;;;;;;7.38;3.30;;;;;;;12.51;100.00;100014.97;5073713;28;20060;-77
2023/04/23 15:21:52;;;;;;;10.02;3.30;;;;;;;12.52;100.00;100019.34;5091582;28;20028;-79
2023/04/23 15:24:18;;;;;;;7.25;3.28;;;;;;;12.48;100.00;100008.16;5092312;28;20051;-76
2023/04/23 15:26:44;;;;;;;7.28;2.88;;;;;;;12.52;100.00;100012.00;5092142;28;20024;-82
2023/04/23 15:29:29;;;;;;;;;;;;;;;;;;;;;
2023/04/23 15:32:17;;;;;;;8.75;3.70;;;;;;;12.62;100.00;99997.72;5081171;28;20050;-79
2023/04/23 15:35:29;;;;;;;8.48;2.88;;;;;;;12.59;100.00;99999.03;5079964;28;20062;-76
2023/04/23 15:37:55;;;;;;;8.18;2.92;;;;;;;12.56;100.00;99971.59;5080129;28;20031;-73
2023/04/23 15:40:21;;;;;;;7.68;3.53;;;;;;;12.59;100.00;99966.47;5084784;28;20736;-77
2023/04/23 15:42:48;;;;;;;7.28;2.90;;;;;;;12.57;100.00;99963.19;5069481;28;20035;-76
2023/04/23 15:45:17;;;;;;;7.60;3.15;;;;;;;12.58;100.00;99958.59;5086234;28;20103;-73
2023/04/23 15:47:42;;;;;;;7.75;2.70;;;;;;;12.57;100.00;99949.59;5091184;28;20036;-73
2023/04/23 15:50:10;;;;;;;7.28;2.72;;;;;;;12.52;100.00;99955.00;5066788;28;20031;-72
2023/04/23 15:52:36;;;;;;;7.85;2.92;;;;;;;12.51;100.00;99950.66;5087642;28;20051;-76
2023/04/23 15:55:07;;;;;;;6.88;3.28;;;;;;;12.59;100.00;99927.63;5074078;28;20105;-75
2023/04/23 15:57:32;;;;;;;7.47;3.10;;;;;;;12.61;100.00;99933.63;5074566;28;20036;-76
2023/04/23 16:00:02;;;;;;;8.05;3.00;;;;;;;12.61;100.00;99919.25;5089320;28;20290;-75
